Latest Weather Observations for Yanakie

IDV60801

Issued at 3:52 pm EDT Sunday 24 March 2019 (issued every 10 minutes, with the page automatically refreshed every 10 minutes)

About weather observations | Map of weather stations | Latest weather observations for VIC | Other Formats
Station Details ID: 085301 Name: YANAKIE Lat: -38.81 Lon: 146.19 Height: 13.3 m
Data from the previous 72 hours. | See also: Recent months at Yanakie
Date/Time
EDT
Temp
°C
App
Temp
°C
Dew
Point
°C
Rel
Hum
%
Delta-T
°C
Wind Press
QNH
hPa
Press
MSL
hPa
Rain since
9am
mm
Dir  Spd
km/h
Gust
km/h
Spd
kts
Gust
kts
24/03:30pm 23.2 21.5 15.8 63 4.5 E 19 32 10 17 1004.6 1004.5 0.0
24/03:00pm 22.4 20.5 15.7 66 4.0 ENE 20 32 11 17 1005.1 1005.0 0.0
24/02:30pm 23.6 21.3 15.6 61 4.8 ENE 22 32 12 17 1005.6 1005.5 0.0
24/02:00pm 25.6 24.4 14.1 49 6.8 ENE 13 20 7 11 1006.3 1006.2 0.0
24/01:30pm 24.6 24.4 13.5 50 6.5 SSE 7 17 4 9 1007.1 1007.0 0.0
24/01:00pm 25.1 24.2 13.6 49 6.8 N 11 19 6 10 1007.7 1007.6 0.0
24/12:30pm 24.5 24.4 13.4 50 6.5 NNW 6 19 3 10 1008.4 1008.3 0.0
24/12:00pm 24.1 23.5 13.6 52 6.1 WNW 9 17 5 9 1009.1 1009.0 0.0
24/11:30am 23.5 23.1 14.2 56 5.5 NW 9 15 5 8 1009.8 1009.7 0.0
24/11:00am 22.1 22.0 15.0 64 4.2 NNW 9 19 5 10 1010.4 1010.3 0.0
24/10:30am 21.6 20.8 15.2 67 3.8 NNW 13 20 7 11 1010.8 1010.7 0.0
24/10:00am 20.4 18.9 15.2 72 3.1 NW 17 26 9 14 1011.0 1010.9 0.0
24/09:30am 19.8 19.1 15.4 76 2.6 NW 13 20 7 11 1011.0 1010.9 0.0
24/09:00am 18.8 18.3 16.0 84 1.7 NNW 13 20 7 11 1011.0 1010.9 0.4
24/08:30am 17.5 18.1 16.9 96 0.4 NNW 9 11 5 6 1011.0 1010.9 0.4
24/08:00am 16.5 17.4 16.2 98 0.2 NNW 6 7 3 4 1010.8 1010.7 0.4
24/07:30am 16.7 18.1 16.4 98 0.2 NNW 4 6 2 3 1010.7 1010.6 0.4
24/07:00am 16.8 17.7 16.5 98 0.2 NNW 7 9 4 5 1010.4 1010.3 0.4
24/06:30am 16.4 17.1 16.1 98 0.2 NW 7 9 4 5 1010.1 1010.0 0.4
24/06:00am 16.3 16.9 15.7 96 0.4 NNW 7 9 4 5 1009.6 1009.5 0.4
24/05:30am 16.9 17.9 16.3 96 0.4 NNW 6 7 3 4 1009.5 1009.4 0.4
24/05:00am 17.1 17.7 16.8 98 0.2 NW 9 13 5 7 1009.7 1009.6 0.4
24/04:30am 16.5 17.4 16.2 98 0.2 WNW 6 7 3 4 1009.8 1009.7 0.4
24/04:00am 16.5 17.4 16.0 97 0.3 NNW 6 7 3 4 1009.9 1009.8 0.4
24/03:30am 16.9 17.4 16.6 98 0.2 NW 9 13 5 7 1010.1 1010.0 0.4
24/03:00am 16.3 16.5 15.8 97 0.3 WNW 9 11 5 6 1010.4 1010.3 0.4
24/02:30am 16.5 16.7 15.7 95 0.5 WNW 9 11 5 6 1010.7 1010.6 0.4
24/02:00am 17.0 16.9 15.9 93 0.6 WNW 11 13 6 7 1010.4 1010.3 0.4
24/01:30am 17.1 16.7 16.1 94 0.6 WNW 13 15 7 8 1010.5 1010.4 0.4
24/01:00am 17.1 16.6 16.0 93 0.6 W 13 17 7 9 1010.7 1010.6 0.4
24/12:30am 17.0 16.9 15.9 93 0.6 W 11 13 6 7 1010.6 1010.5 0.4
24/12:00am 16.9 16.7 15.8 93 0.6 WNW 11 15 6 8 1010.7 1010.6 0.4
 
Date/Time
EDT
Temp
°C
App
Temp
°C
Dew
Point
°C
Rel
Hum
%
Delta-T
°C
Wind Press
QNH
hPa
Press
MSL
hPa
Rain since
9am
mm
Dir  Spd
km/h
Gust
km/h
Spd
kts
Gust
kts
23/11:30pm 17.1 17.0 16.0 93 0.6 W 11 15 6 8 1010.8 1010.7 0.4
23/11:00pm 17.1 16.6 15.8 92 0.8 WNW 13 15 7 8 1010.4 1010.3 0.4
23/10:30pm 17.6 17.4 15.8 89 1.1 WSW 11 13 6 7 1009.9 1009.8 0.4
23/10:00pm 18.2 17.0 16.2 88 1.2 WSW 17 20 9 11 1009.8 1009.7 0.4
23/09:30pm 18.5 17.5 16.5 88 1.2 WSW 17 28 9 15 1009.8 1009.7 0.4
23/09:00pm 18.6 17.0 16.4 87 1.3 WSW 20 28 11 15 1009.5 1009.4 0.4
23/08:30pm 18.7 17.1 16.5 87 1.3 SW 20 26 11 14 1009.4 1009.3 0.4
23/08:00pm 18.8 14.8 16.8 88 1.2 WSW 33 43 18 23 1008.2 1008.1 0.4
23/07:30pm 18.9 16.1 17.2 90 1.0 SW 28 37 15 20 1007.5 1007.4 0.4
23/07:28pm 19.0 16.2 17.3 90 1.0 SW 28 46 15 25 1007.4 1007.3 0.4
23/07:00pm 19.9 15.6 17.7 87 1.4 WSW 37 52 20 28 1006.5 1006.4 0.4
23/06:49pm 22.3 22.2 17.0 72 3.2 SSW 13 50 7 27 1005.9 1005.8 0.4
23/06:48pm 23.2 24.0 17.2 69 3.7 S 9 37 5 20 1005.8 1005.7 0.4
23/06:30pm 25.2 26.7 17.7 63 4.7 E 6 9 3 5 1004.4 1004.3 0.4
23/06:00pm 26.0 26.7 17.1 58 5.6 E 9 15 5 8 1004.2 1004.1 0.4
23/05:30pm 26.7 27.2 17.5 57 5.8 ENE 11 15 6 8 1004.3 1004.2 0.4
23/05:00pm 27.1 27.9 17.3 55 6.2 ENE 9 13 5 7 1004.5 1004.4 0.4
23/04:30pm 26.2 26.0 17.6 59 5.4 ENE 15 20 8 11 1004.9 1004.8 0.4
23/04:00pm 25.7 24.9 18.1 63 4.8 ENE 19 26 10 14 1004.9 1004.8 0.4
23/03:30pm 24.6 23.7 18.3 68 4.0 ENE 20 30 11 16 1004.8 1004.7 0.4
23/03:00pm 23.6 22.4 18.3 72 3.3 ENE 22 28 12 15 1005.0 1004.9 0.4
23/02:30pm 23.4 22.9 18.7 75 3.0 ENE 19 26 10 14 1005.8 1005.7 0.4
23/02:00pm 21.7 23.4 20.9 95 0.5 ENE 13 19 7 10 1006.9 1006.8 0.4
23/01:30pm 19.9 21.0 19.6 98 0.2 ENE 13 19 7 10 1007.5 1007.4 0.4
23/01:00pm 19.8 21.3 19.8 100 0.0 NE 11 17 6 9 1008.6 1008.5 0.4
23/12:30pm 19.5 21.3 19.5 100 0.0 NE 9 13 5 7 1009.3 1009.2 0.4
23/12:00pm 19.5 20.5 19.5 100 0.0 ENE 13 17 7 9 1009.5 1009.4 0.2
23/11:30am 19.3 21.0 18.6 96 0.4 ENE 7 11 4 6 1010.0 1009.9 0.2
23/11:00am 19.7 21.4 18.4 92 0.8 NE 7 11 4 6 1010.4 1010.3 0.0
23/10:30am 19.7 21.1 18.7 94 0.6 ENE 9 13 5 7 1010.5 1010.4 0.0
23/10:00am 19.4 20.8 18.7 96 0.4 ENE 9 13 5 7 1010.9 1010.8 0.0
23/09:30am 19.2 19.8 18.5 96 0.4 NNE 13 19 7 10 1010.9 1010.8 0.0
23/09:00am 19.2 18.0 18.5 96 0.4 ENE 22 32 12 17 1009.6 1009.5 0.2
23/08:30am 19.1 16.9 18.6 97 0.3 ENE 28 41 15 22 1009.1 1009.0 0.2
23/08:00am 19.1 16.4 18.4 96 0.4 ENE 30 43 16 23 1009.3 1009.2 0.2
23/07:30am 19.1 16.4 18.4 96 0.4 ENE 30 43 16 23 1009.6 1009.5 0.2
23/07:00am 19.1 17.1 18.3 95 0.5 ENE 26 39 14 21 1009.7 1009.6 0.2
23/06:30am 19.2 16.1 18.4 95 0.5 ENE 32 44 17 24 1009.5 1009.4 0.2
23/06:00am 19.1 16.3 18.3 95 0.5 ENE 30 43 16 23 1009.8 1009.7 0.2
23/05:30am 19.2 16.1 18.4 95 0.5 ENE 32 43 17 23 1009.8 1009.7 0.2
23/05:00am 19.2 16.8 18.2 94 0.6 ENE 28 43 15 23 1010.3 1010.2 0.2
23/04:30am 19.1 16.3 18.3 95 0.5 ENE 30 41 16 22 1010.3 1010.2 0.2
23/04:00am 19.1 16.3 18.3 95 0.5 ENE 30 39 16 21 1010.9 1010.8 0.2
23/03:30am 19.1 16.3 18.1 94 0.6 ENE 30 44 16 24 1011.3 1011.2 0.2
23/03:00am 19.2 16.0 18.2 94 0.6 ENE 32 44 17 24 1012.0 1011.9 0.2
23/02:30am 19.3 16.2 18.5 95 0.5 ENE 32 43 17 23 1012.2 1012.1 0.2
23/02:00am 19.4 16.9 18.9 97 0.3 ENE 30 43 16 23 1012.3 1012.2 0.2
23/01:30am 19.4 17.0 19.1 98 0.2 ENE 30 41 16 22 1012.8 1012.7 0.2
23/01:00am 19.5 17.3 18.8 96 0.4 ENE 28 41 15 22 1013.2 1013.1 0.2
23/12:30am 19.6 17.0 18.6 94 0.6 ENE 30 43 16 23 1013.7 1013.6 0.2
23/12:00am 19.7 16.7 18.7 94 0.6 ENE 32 44 17 24 1013.9 1013.8 0.2
 
Date/Time
EDT
Temp
°C
App
Temp
°C
Dew
Point
°C
Rel
Hum
%
Delta-T
°C
Wind Press
QNH
hPa
Press
MSL
hPa
Rain since
9am
mm
Dir  Spd
km/h
Gust
km/h
Spd
kts
Gust
kts
22/11:30pm 19.8 16.7 18.8 94 0.6 ENE 33 44 18 24 1013.9 1013.8 0.2
22/11:00pm 19.8 16.7 18.8 94 0.6 ENE 33 46 18 25 1013.8 1013.7 0.2
22/10:30pm 19.9 16.4 18.7 93 0.7 ENE 35 48 19 26 1013.9 1013.8 0.2
22/10:00pm 20.0 17.0 18.7 92 0.8 ENE 32 44 17 24 1014.4 1014.3 0.2
22/09:41pm 20.0 16.9 18.5 91 0.9 ENE 32 50 17 27 1014.3 1014.2 0.2
22/09:30pm 20.1 17.1 18.6 91 0.9 ENE 32 46 17 25 1014.4 1014.3 0.2
22/09:00pm 20.1 16.9 18.6 91 0.9 ENE 33 46 18 25 1014.2 1014.1 0.2
22/08:30pm 20.1 16.8 18.4 90 1.1 ENE 33 46 18 25 1014.1 1014.0 0.2
22/08:00pm 20.0 16.9 18.5 91 0.9 ENE 32 43 17 23 1014.1 1014.0 0.2
22/07:30pm 20.2 17.5 18.5 90 1.1 ENE 30 39 16 21 1014.1 1014.0 0.2
22/07:00pm 20.4 17.4 18.7 90 1.1 ENE 32 46 17 25 1013.8 1013.7 0.2
22/06:30pm 20.6 18.3 18.4 87 1.4 ENE 28 46 15 25 1013.9 1013.8 0.2
22/06:17pm 20.7 18.4 18.5 87 1.4 ENE 28 46 15 25 1013.9 1013.8 0.2
22/06:00pm 20.8 18.5 18.4 86 1.5 E 28 44 15 24 1014.0 1013.9 0.2
22/05:30pm 21.4 20.0 18.8 85 1.6 E 24 39 13 21 1013.7 1013.6 0.2
22/05:00pm 21.1 19.7 18.9 87 1.4 E 24 43 13 23 1014.0 1013.9 0.2
22/04:30pm 22.1 20.1 19.1 83 1.9 E 28 44 15 24 1014.2 1014.1 0.2
22/04:00pm 22.1 20.8 19.1 83 1.9 E 24 39 13 21 1014.4 1014.3 0.2
22/03:30pm 21.4 19.8 19.1 87 1.5 E 26 39 14 21 1014.6 1014.5 0.2
22/03:00pm 21.5 19.6 19.4 88 1.3 E 28 43 15 23 1015.0 1014.9 0.2
22/02:34pm 21.4 19.3 19.0 86 1.5 ENE 28 50 15 27 1015.4 1015.3 0.2
22/02:30pm 21.4 18.9 18.8 85 1.6 ENE 30 44 16 24 1015.4 1015.3 0.2
22/02:00pm 22.0 21.1 19.9 88 1.3 ENE 24 39 13 21 1015.5 1015.4 0.2
22/01:30pm 21.6 20.8 20.9 96 0.5 E 26 41 14 22 1015.8 1015.7 0.2
22/01:00pm 20.9 20.5 20.9 100 0.0 E 24 37 13 20 1016.1 1016.0 0.0
22/12:30pm 20.3 19.6 20.3 100 0.0 E 24 35 13 19 1016.4 1016.3 0.0
22/12:00pm 20.2 18.7 20.2 100 0.0 ENE 28 41 15 22 1016.4 1016.3 0.0
22/11:30am 20.0 19.2 20.0 100 0.0 ENE 24 39 13 21 1016.5 1016.4 0.0
22/11:00am 19.8 18.5 19.8 100 0.0 ENE 26 39 14 21 1016.5 1016.4 0.0
22/10:30am 19.8 18.5 19.8 100 0.0 ENE 26 44 14 24 1016.4 1016.3 0.0
22/10:00am 19.7 18.3 19.7 100 0.0 ENE 26 43 14 23 1016.5 1016.4 0.0
22/09:30am 19.8 18.5 19.8 100 0.0 ENE 26 41 14 22 1016.6 1016.5 0.0
22/09:00am 19.2 17.2 19.2 100 0.0 ENE 28 39 15 21 1016.5 1016.4 0.4
22/08:30am 19.1 16.7 19.1 100 0.0 ENE 30 43 16 23 1016.5 1016.4 0.4
22/08:00am 19.0 16.6 19.0 100 0.0 ENE 30 43 16 23 1016.4 1016.3 0.4
22/07:30am 19.0 16.0 19.0 100 0.0 ENE 33 44 18 24 1016.1 1016.0 0.0
22/07:00am 19.1 17.5 19.1 100 0.0 E 26 41 14 22 1015.8 1015.7 0.0
22/06:30am 19.3 17.7 19.3 100 0.0 ENE 26 39 14 21 1015.8 1015.7 0.0
22/06:00am 19.4 17.1 19.4 100 0.0 ENE 30 41 16 22 1015.6 1015.5 0.0
22/05:30am 19.4 17.5 19.4 100 0.0 ENE 28 37 15 20 1015.5 1015.4 0.0
22/05:00am 19.5 18.0 19.5 100 0.0 ENE 26 37 14 20 1015.4 1015.3 0.0
22/04:30am 19.4 17.5 19.4 100 0.0 ENE 28 41 15 22 1015.4 1015.3 0.0
22/04:00am 19.3 16.6 19.3 100 0.0 ENE 32 44 17 24 1015.5 1015.4 0.0
22/03:30am 19.2 17.2 19.2 100 0.0 ENE 28 44 15 24 1015.6 1015.5 0.0
22/03:00am 19.2 17.2 19.2 100 0.0 ENE 28 48 15 26 1015.8 1015.7 0.0
22/02:30am 19.1 17.1 19.1 100 0.0 ENE 28 44 15 24 1016.1 1016.0 0.0
22/02:00am 19.1 17.5 19.1 100 0.0 ENE 26 39 14 21 1016.2 1016.1 0.0
22/01:30am 19.0 16.9 19.0 100 0.0 ENE 28 41 15 22 1016.4 1016.3 0.0
22/01:00am 18.9 17.9 18.9 100 0.0 E 22 33 12 18 1016.6 1016.5 0.0
22/12:30am 18.9 17.5 18.7 99 0.1 ENE 24 33 13 18 1016.8 1016.7 0.0
22/12:00am 18.8 16.7 18.1 96 0.4 ENE 26 39 14 21 1017.1 1017.0 0.0
 
Date/Time
EDT
Temp
°C
App
Temp
°C
Dew
Point
°C
Rel
Hum
%
Delta-T
°C
Wind Press
QNH
hPa
Press
MSL
hPa
Rain since
9am
mm
Dir  Spd
km/h
Gust
km/h
Spd
kts
Gust
kts
21/11:30pm 19.2 16.5 17.5 90 1.0 ENE 28 37 15 20 1017.3 1017.2 0.0
21/11:00pm 19.3 16.9 17.3 88 1.2 ENE 26 37 14 20 1017.7 1017.6 0.0
21/10:30pm 19.2 16.1 16.6 85 1.6 ENE 28 35 15 19 1017.8 1017.7 0.0
21/10:00pm 19.4 17.1 16.6 84 1.7 ENE 24 33 13 18 1017.7 1017.6 0.0
21/09:30pm 19.4 17.6 16.1 81 2.0 ENE 20 32 11 17 1017.6 1017.5 0.0
21/09:00pm 19.4 17.4 16.4 83 1.8 ENE 22 35 12 19 1017.7 1017.6 0.0
21/08:30pm 19.3 17.2 16.2 82 1.9 ENE 22 35 12 19 1017.4 1017.3 0.0
21/08:00pm 19.3 17.2 16.3 83 1.8 ENE 22 32 12 17 1017.2 1017.1 0.0
21/07:30pm 19.4 17.8 16.6 84 1.7 ENE 20 35 11 19 1017.0 1016.9 0.0
21/07:00pm 19.5 17.5 16.5 83 1.8 ENE 22 35 12 19 1016.8 1016.7 0.0
21/06:30pm 19.8 18.5 16.8 83 1.8 E 19 33 10 18 1016.7 1016.6 0.0
21/06:00pm 19.9 18.5 17.1 84 1.7 E 20 32 11 17 1016.7 1016.6 0.0
21/05:30pm 20.1 18.8 17.3 84 1.7 E 20 35 11 19 1016.5 1016.4 0.0
21/05:00pm 20.8 19.3 17.6 82 2.0 E 22 32 12 17 1016.2 1016.1 0.0
21/04:30pm 21.4 20.7 18.6 84 1.8 E 20 33 11 18 1016.4 1016.3 0.0
21/04:00pm 21.3 20.0 18.1 82 2.0 E 22 39 12 21 1016.2 1016.1 0.0

Other formats

Comma delimited format used in spreadsheet applications
http://www.bom.gov.au/fwo/IDV60801/IDV60801.94911.axf

JavaScript Object Notation format (JSON) in row-major order
http://www.bom.gov.au/fwo/IDV60801/IDV60801.94911.json

Data quality

Most of these data are generated automatically and are frequently updated. Quality checks on data are not normally performed. It is possible for incorrect values to appear. Refer to information at About Latest Weather Observations and please check the disclaimer before using these data.